createdAt,value
2018-10-18T00:01:34.645Z,11.90
2018-10-18T00:04:03.131Z,11.90
2018-10-18T00:06:31.631Z,11.90
2018-10-18T00:09:00.199Z,11.90
2018-10-18T00:11:28.654Z,11.90
2018-10-18T00:13:57.174Z,11.90
2018-10-18T00:16:25.617Z,11.90
2018-10-18T00:18:54.080Z,11.90
2018-10-18T00:21:22.539Z,11.90
2018-10-18T00:23:51.040Z,11.90
2018-10-18T00:26:19.520Z,11.90
2018-10-18T00:28:48.003Z,11.90
2018-10-18T00:31:16.489Z,11.90
2018-10-18T00:33:44.960Z,11.90
2018-10-18T00:36:13.596Z,11.90
2018-10-18T00:38:41.927Z,11.90
2018-10-18T00:41:10.439Z,11.80
2018-10-18T00:43:38.918Z,11.80
2018-10-18T00:46:07.409Z,11.80
2018-10-18T00:48:35.870Z,11.80
2018-10-18T00:51:04.402Z,11.80
2018-10-18T00:53:32.874Z,11.80
2018-10-18T00:56:01.412Z,11.80
2018-10-18T00:58:29.874Z,11.70
2018-10-18T01:00:58.379Z,11.70
2018-10-18T01:03:26.850Z,11.70
2018-10-18T01:05:55.336Z,11.70
2018-10-18T01:08:23.812Z,11.70
2018-10-18T01:10:52.284Z,11.70
2018-10-18T01:13:20.751Z,11.70
2018-10-18T01:15:49.207Z,11.70
2018-10-18T01:18:17.743Z,11.70
2018-10-18T01:20:56.620Z,11.80
2018-10-18T01:23:25.075Z,11.80
2018-10-18T01:25:53.604Z,11.80
2018-10-18T01:28:22.043Z,11.80
2018-10-18T01:30:50.511Z,11.70
2018-10-18T01:33:18.975Z,11.80
2018-10-18T01:35:47.436Z,11.80
2018-10-18T01:38:15.955Z,11.70
2018-10-18T01:40:44.444Z,11.70
2018-10-18T01:43:12.918Z,11.70
2018-10-18T01:45:41.390Z,11.70
2018-10-18T01:48:10.250Z,11.70
2018-10-18T01:50:38.606Z,11.70
2018-10-18T01:53:07.590Z,11.60
2018-10-18T01:55:36.067Z,11.60
2018-10-18T01:58:04.931Z,11.60
2018-10-18T02:00:33.511Z,11.60
2018-10-18T02:03:01.970Z,11.60
2018-10-18T02:05:30.541Z,11.50
2018-10-18T02:07:59.028Z,11.50
2018-10-18T02:10:27.579Z,11.50
2018-10-18T02:12:56.035Z,11.50
2018-10-18T02:15:24.527Z,11.50
2018-10-18T02:17:52.994Z,11.50
2018-10-18T02:20:21.471Z,11.50
2018-10-18T02:22:49.934Z,11.50
2018-10-18T02:25:18.472Z,11.50
2018-10-18T02:27:46.910Z,11.50
2018-10-18T02:30:15.476Z,11.50
2018-10-18T02:32:43.871Z,11.50
2018-10-18T02:35:12.342Z,11.40
2018-10-18T02:37:40.811Z,11.40
2018-10-18T02:40:09.302Z,11.40
2018-10-18T02:42:37.755Z,11.40
2018-10-18T02:45:06.282Z,11.30
2018-10-18T02:47:34.754Z,11.40
2018-10-18T02:50:03.263Z,11.30
2018-10-18T02:52:31.778Z,11.30
2018-10-18T02:55:00.246Z,11.40
2018-10-18T02:57:28.737Z,11.40
2018-10-18T02:59:57.249Z,11.30
2018-10-18T03:02:25.710Z,11.30
2018-10-18T03:04:54.174Z,11.30
2018-10-18T03:07:22.670Z,11.30
2018-10-18T03:09:51.130Z,11.30
2018-10-18T03:12:19.664Z,11.40
2018-10-18T03:14:48.064Z,11.40
2018-10-18T03:17:16.553Z,11.40
2018-10-18T03:19:45.139Z,11.40
2018-10-18T03:22:13.618Z,11.30
2018-10-18T03:24:42.115Z,11.30
2018-10-18T03:27:10.619Z,11.20
2018-10-18T03:29:39.083Z,11.20
2018-10-18T03:32:07.591Z,11.20
2018-10-18T03:34:36.051Z,11.20
2018-10-18T03:37:04.911Z,11.20
2018-10-18T03:39:33.372Z,11.20
2018-10-18T03:42:01.923Z,11.20
2018-10-18T03:44:30.382Z,11.10
2018-10-18T03:46:58.850Z,11.10
2018-10-18T03:49:27.332Z,11.00
2018-10-18T03:51:55.798Z,10.90
2018-10-18T03:54:24.255Z,10.90
2018-10-18T03:56:52.718Z,10.80
2018-10-18T03:59:21.196Z,10.80
2018-10-18T04:01:49.687Z,10.70
2018-10-18T04:04:18.142Z,10.70
2018-10-18T04:06:46.611Z,10.70
2018-10-18T04:09:15.074Z,10.60
2018-10-18T04:11:43.562Z,10.60
2018-10-18T04:14:12.035Z,10.60
2018-10-18T04:16:40.499Z,10.60
2018-10-18T04:19:08.955Z,10.60
2018-10-18T04:21:37.427Z,10.60
2018-10-18T04:24:05.999Z,10.60
2018-10-18T04:26:34.435Z,10.60
2018-10-18T04:29:02.911Z,10.70
2018-10-18T04:31:31.410Z,10.70
2018-10-18T04:33:59.860Z,10.60
2018-10-18T04:36:28.319Z,10.60
2018-10-18T04:38:56.785Z,10.60
2018-10-18T04:41:25.254Z,10.50
2018-10-18T04:43:53.707Z,10.50
2018-10-18T04:46:22.154Z,10.50
2018-10-18T04:48:50.655Z,10.50
2018-10-18T04:51:19.118Z,10.50
2018-10-18T04:53:47.571Z,10.50
2018-10-18T04:56:16.035Z,10.60
2018-10-18T04:58:44.491Z,10.60
2018-10-18T05:01:13.090Z,10.50
2018-10-18T05:03:41.518Z,10.50
2018-10-18T05:06:10.002Z,10.40
2018-10-18T05:08:38.454Z,10.50
2018-10-18T05:11:06.969Z,10.50
2018-10-18T05:13:35.415Z,10.50
2018-10-18T05:16:03.919Z,10.50
2018-10-18T05:18:32.461Z,10.50
2018-10-18T05:21:00.918Z,10.50
2018-10-18T05:23:29.403Z,10.50
2018-10-18T05:25:57.918Z,10.50
2018-10-18T05:28:26.442Z,10.60
2018-10-18T05:30:54.980Z,10.50
2018-10-18T05:33:23.430Z,10.50
2018-10-18T05:35:51.898Z,10.50
2018-10-18T05:38:20.383Z,10.60
2018-10-18T05:40:48.892Z,10.50
2018-10-18T05:43:17.388Z,10.50
2018-10-18T05:45:45.842Z,10.50
2018-10-18T05:48:14.343Z,10.50
2018-10-18T05:50:42.874Z,10.60
2018-10-18T05:53:11.456Z,10.60
2018-10-18T05:55:39.866Z,10.70
2018-10-18T05:58:08.414Z,10.70
2018-10-18T06:00:36.953Z,10.80
2018-10-18T06:03:05.636Z,10.80
2018-10-18T06:05:34.151Z,11.00
2018-10-18T06:08:02.691Z,11.00
2018-10-18T06:10:42.432Z,11.00
2018-10-18T06:13:10.991Z,11.10
2018-10-18T06:15:39.513Z,11.10
2018-10-18T06:18:08.028Z,11.20
2018-10-18T06:20:36.542Z,11.30
2018-10-18T06:23:05.518Z,11.30
2018-10-18T06:25:34.046Z,11.40
2018-10-18T06:28:02.570Z,11.40
2018-10-18T06:30:31.102Z,11.40
2018-10-18T06:32:59.798Z,11.40
2018-10-18T06:35:28.268Z,11.40
2018-10-18T06:37:56.788Z,11.40
2018-10-18T06:40:25.355Z,11.40
2018-10-18T06:42:53.925Z,11.40
2018-10-18T06:45:22.475Z,11.40
2018-10-18T06:47:51.196Z,11.50
2018-10-18T06:50:20.677Z,11.40
2018-10-18T06:52:49.341Z,11.50
2018-10-18T06:55:18.001Z,11.40
2018-10-18T06:57:46.428Z,11.40
2018-10-18T07:00:16.527Z,11.40
2018-10-18T07:02:45.487Z,11.40
2018-10-18T07:05:14.990Z,11.40
2018-10-18T07:07:44.154Z,11.40
2018-10-18T07:10:12.689Z,11.30
2018-10-18T07:12:41.411Z,11.40
2018-10-18T07:15:11.762Z,11.40
2018-10-18T07:17:41.093Z,11.40
2018-10-18T07:20:11.007Z,11.50
2018-10-18T07:22:40.042Z,11.50
2018-10-18T07:25:11.881Z,11.60
2018-10-18T07:27:41.003Z,11.60
2018-10-18T07:30:11.253Z,11.70
2018-10-18T07:32:39.830Z,11.80
2018-10-18T07:35:09.977Z,11.90
2018-10-18T07:37:38.916Z,12.10
2018-10-18T07:40:09.454Z,12.20
2018-10-18T07:42:37.998Z,12.40
2018-10-18T07:45:07.304Z,12.60
2018-10-18T07:47:35.833Z,12.70
2018-10-18T07:50:04.806Z,12.80
2018-10-18T07:52:33.371Z,12.90
2018-10-18T07:55:01.958Z,13.00
2018-10-18T07:57:30.602Z,13.10
2018-10-18T07:59:59.161Z,13.30
2018-10-18T08:02:27.714Z,13.50
2018-10-18T08:04:56.243Z,13.60
2018-10-18T08:07:24.795Z,13.70
2018-10-18T08:09:53.338Z,13.80
2018-10-18T08:12:21.866Z,14.00
2018-10-18T08:14:50.400Z,14.00
2018-10-18T08:17:18.950Z,14.10
2018-10-18T08:19:47.467Z,14.20
2018-10-18T08:22:15.995Z,14.30
2018-10-18T08:24:44.518Z,14.40
2018-10-18T08:27:13.046Z,14.50
2018-10-18T08:29:41.606Z,14.60
2018-10-18T08:32:10.119Z,14.70
2018-10-18T08:34:38.672Z,14.80
2018-10-18T08:37:07.323Z,14.90
2018-10-18T08:39:35.808Z,15.00
2018-10-18T08:42:04.419Z,15.20
2018-10-18T08:44:33.051Z,15.40
2018-10-18T08:47:01.536Z,15.50
2018-10-18T08:49:30.073Z,15.70
2018-10-18T08:51:58.615Z,15.70
2018-10-18T08:54:27.218Z,15.80
2018-10-18T08:56:55.739Z,16.00
2018-10-18T08:59:24.341Z,16.10
2018-10-18T09:01:52.803Z,16.10
2018-10-18T09:04:21.335Z,16.00
2018-10-18T09:06:49.863Z,16.10
2018-10-18T09:09:18.370Z,16.20
2018-10-18T09:11:47.238Z,16.20
2018-10-18T09:14:15.870Z,16.20
2018-10-18T09:16:44.409Z,16.20
2018-10-18T09:19:13.011Z,16.30
2018-10-18T09:21:41.483Z,16.20
2018-10-18T09:24:09.990Z,16.20
2018-10-18T09:26:38.518Z,16.20
2018-10-18T09:29:07.048Z,16.30
2018-10-18T09:31:35.582Z,16.40
2018-10-18T09:34:04.194Z,16.40
2018-10-18T09:36:32.754Z,16.40
2018-10-18T09:39:01.287Z,16.50
2018-10-18T09:41:29.813Z,16.60
2018-10-18T09:43:58.386Z,16.80
2018-10-18T09:46:27.211Z,16.80
2018-10-18T09:48:55.765Z,17.00
2018-10-18T09:51:24.270Z,17.20
2018-10-18T09:53:52.851Z,17.30
2018-10-18T09:56:21.419Z,17.60
2018-10-18T09:58:49.922Z,17.60
2018-10-18T10:01:23.702Z,17.90
2018-10-18T10:03:52.222Z,18.00
2018-10-18T10:06:20.747Z,18.10
2018-10-18T10:08:49.275Z,18.20
2018-10-18T10:11:17.802Z,18.20
2018-10-18T10:13:46.411Z,18.20
2018-10-18T10:16:16.122Z,18.10
2018-10-18T10:18:44.667Z,17.90
2018-10-18T10:21:13.235Z,18.00
2018-10-18T10:23:41.742Z,18.00
2018-10-18T10:26:10.275Z,18.10
2018-10-18T10:28:38.801Z,18.10
2018-10-18T10:31:08.036Z,18.10
2018-10-18T10:33:36.487Z,18.20
2018-10-18T10:36:05.407Z,18.20
2018-10-18T10:38:34.075Z,18.20
2018-10-18T10:41:02.646Z,18.30
2018-10-18T10:43:31.151Z,18.30
2018-10-18T10:45:59.675Z,18.30
2018-10-18T10:48:28.217Z,18.20
2018-10-18T10:50:56.760Z,18.10
2018-10-18T10:53:25.301Z,18.00
2018-10-18T10:55:53.871Z,18.10
2018-10-18T10:58:22.415Z,18.20
2018-10-18T11:01:22.834Z,18.20
2018-10-18T11:03:52.826Z,18.40
2018-10-18T11:06:21.424Z,18.60
2018-10-18T11:08:50.027Z,18.70
2018-10-18T11:11:19.007Z,18.70
2018-10-18T11:13:47.591Z,18.80
2018-10-18T11:16:16.142Z,18.70
2018-10-18T11:18:44.687Z,18.80
2018-10-18T11:21:14.750Z,18.90
2018-10-18T11:23:43.235Z,19.00
2018-10-18T11:26:11.794Z,18.90
2018-10-18T11:28:40.323Z,18.90
2018-10-18T11:31:08.859Z,19.00
2018-10-18T11:33:37.377Z,19.10
2018-10-18T11:36:05.964Z,19.20
2018-10-18T11:38:34.503Z,19.20
2018-10-18T11:41:03.025Z,19.30
2018-10-18T11:43:31.547Z,19.40
2018-10-18T11:46:00.110Z,19.30
2018-10-18T11:48:28.665Z,19.10
2018-10-18T11:50:57.179Z,19.10
2018-10-18T11:53:25.710Z,19.10
2018-10-18T11:55:54.335Z,19.20
2018-10-18T11:58:22.810Z,19.20
2018-10-18T12:00:51.343Z,19.20
2018-10-18T12:03:19.870Z,19.20
2018-10-18T12:05:48.386Z,19.30
2018-10-18T12:08:16.980Z,19.40
2018-10-18T12:10:45.459Z,19.40
2018-10-18T12:13:13.991Z,19.40
2018-10-18T12:15:42.506Z,19.40
2018-10-18T12:18:11.060Z,19.50
2018-10-18T12:20:39.575Z,19.60
2018-10-18T12:23:08.147Z,19.60
2018-10-18T12:25:36.634Z,19.60
2018-10-18T12:28:05.244Z,19.50
2018-10-18T12:30:33.854Z,19.40
2018-10-18T12:33:02.385Z,19.40
2018-10-18T12:35:30.934Z,19.50
2018-10-18T12:37:59.588Z,19.50
2018-10-18T12:40:28.169Z,19.20
2018-10-18T12:42:56.623Z,19.10
2018-10-18T12:45:25.142Z,19.10
2018-10-18T12:47:53.666Z,19.10
2018-10-18T12:50:22.193Z,19.20
2018-10-18T12:52:50.727Z,19.10
2018-10-18T12:55:19.243Z,19.20
2018-10-18T12:57:47.771Z,19.30
2018-10-18T13:00:16.415Z,19.30
2018-10-18T13:02:44.939Z,19.30
2018-10-18T13:05:13.463Z,19.20
2018-10-18T13:07:41.971Z,19.20
2018-10-18T13:10:12.004Z,19.30
2018-10-18T13:12:41.184Z,19.20
2018-10-18T13:15:10.719Z,19.30
2018-10-18T13:17:39.497Z,19.30
2018-10-18T13:20:09.105Z,19.30
2018-10-18T13:22:37.686Z,19.20
2018-10-18T13:25:07.532Z,19.10
2018-10-18T13:27:36.291Z,19.20
2018-10-18T13:30:06.295Z,19.10
2018-10-18T13:32:34.762Z,19.10
2018-10-18T13:35:03.570Z,19.20
2018-10-18T13:37:32.143Z,19.20
2018-10-18T13:40:00.921Z,19.20
2018-10-18T13:42:29.439Z,19.20
2018-10-18T13:44:57.955Z,19.20
2018-10-18T13:47:26.483Z,19.20
2018-10-18T13:49:54.990Z,19.00
2018-10-18T13:52:23.606Z,19.10
2018-10-18T13:54:52.123Z,19.00
2018-10-18T13:57:20.667Z,19.00
2018-10-18T14:00:00.323Z,18.90
2018-10-18T14:02:28.763Z,18.90
2018-10-18T14:04:57.392Z,18.90
2018-10-18T14:07:25.911Z,18.90
2018-10-18T14:09:54.415Z,18.80
2018-10-18T14:12:22.952Z,18.80
2018-10-18T14:14:51.460Z,18.70
2018-10-18T14:17:20.106Z,18.70
2018-10-18T14:19:48.504Z,18.70
2018-10-18T14:22:17.030Z,18.70
2018-10-18T14:24:45.542Z,18.70
2018-10-18T14:27:14.063Z,18.60
2018-10-18T14:29:42.611Z,18.50
2018-10-18T14:32:11.225Z,18.50
2018-10-18T14:34:39.770Z,18.50
2018-10-18T14:37:08.291Z,18.50
2018-10-18T14:39:36.839Z,18.50
2018-10-18T14:42:05.378Z,18.40
2018-10-18T14:44:34.012Z,18.40
2018-10-18T14:47:02.484Z,18.30
2018-10-18T14:49:31.140Z,18.30
2018-10-18T14:51:59.714Z,18.20
2018-10-18T14:54:28.259Z,18.20
2018-10-18T14:56:56.787Z,18.20
2018-10-18T14:59:25.434Z,18.10
2018-10-18T15:01:53.961Z,18.10
2018-10-18T15:04:22.535Z,18.10
2018-10-18T15:06:51.051Z,18.00
2018-10-18T15:09:19.587Z,17.90
2018-10-18T15:11:48.124Z,17.80
2018-10-18T15:14:16.713Z,17.70
2018-10-18T15:16:45.183Z,17.60
2018-10-18T15:19:13.695Z,17.50
2018-10-18T15:21:42.231Z,17.40
2018-10-18T15:24:10.751Z,17.20
2018-10-18T15:26:39.464Z,17.00
2018-10-18T15:29:07.919Z,16.90
2018-10-18T15:31:36.374Z,16.80
2018-10-18T15:34:05.369Z,16.60
2018-10-18T15:36:34.018Z,16.50
2018-10-18T15:39:10.137Z,16.30
2018-10-18T15:41:39.685Z,16.10
2018-10-18T15:44:08.473Z,15.90
2018-10-18T15:46:37.661Z,15.70
2018-10-18T15:49:06.858Z,15.60
2018-10-18T15:51:35.857Z,15.40
2018-10-18T15:54:04.841Z,15.30
2018-10-18T15:56:33.439Z,15.20
2018-10-18T15:59:02.007Z,15.10
2018-10-18T16:01:30.564Z,15.00
2018-10-18T16:03:59.095Z,14.90
2018-10-18T16:06:27.738Z,14.80
2018-10-18T16:08:56.141Z,14.70
2018-10-18T16:11:24.780Z,14.60
2018-10-18T16:13:53.251Z,14.60
2018-10-18T16:16:21.759Z,14.60
2018-10-18T16:18:50.278Z,14.60
2018-10-18T16:21:18.883Z,14.60
2018-10-18T16:23:47.410Z,14.60
2018-10-18T16:26:16.001Z,14.50
2018-10-18T16:28:44.511Z,14.40
2018-10-18T16:31:13.042Z,14.40
2018-10-18T16:33:41.571Z,14.30
2018-10-18T16:36:10.074Z,14.20
2018-10-18T16:38:38.722Z,14.20
2018-10-18T16:41:07.549Z,14.20
2018-10-18T16:43:35.779Z,14.20
2018-10-18T16:46:04.343Z,14.10
2018-10-18T16:48:32.935Z,14.00
2018-10-18T16:51:01.631Z,14.00
2018-10-18T16:53:30.166Z,14.00
2018-10-18T16:55:58.766Z,14.00
2018-10-18T16:58:27.246Z,14.00
2018-10-18T17:00:55.773Z,13.90
2018-10-18T17:03:24.287Z,13.80
2018-10-18T17:05:52.887Z,13.80
2018-10-18T17:08:21.441Z,13.70
2018-10-18T17:10:49.919Z,13.60
2018-10-18T17:13:18.451Z,13.60
2018-10-18T17:15:46.980Z,13.60
2018-10-18T17:18:15.561Z,13.40
2018-10-18T17:20:44.121Z,13.40
2018-10-18T17:23:24.466Z,13.40
2018-10-18T17:25:53.326Z,13.40
2018-10-18T17:28:21.854Z,13.40
2018-10-18T17:30:50.363Z,13.40
2018-10-18T17:33:18.907Z,13.50
2018-10-18T17:35:47.430Z,13.60
2018-10-18T17:38:15.974Z,13.70
2018-10-18T17:40:44.573Z,13.80
2018-10-18T17:43:13.046Z,13.90
2018-10-18T17:45:41.578Z,13.90
2018-10-18T17:48:10.187Z,13.80
2018-10-18T17:50:38.723Z,13.80
2018-10-18T17:53:07.496Z,13.80
2018-10-18T17:55:35.850Z,13.70
2018-10-18T17:58:04.476Z,13.60
2018-10-18T18:00:33.144Z,13.60
2018-10-18T18:03:01.739Z,13.60
2018-10-18T18:05:30.403Z,13.60
2018-10-18T18:07:59.203Z,13.60
2018-10-18T18:10:27.797Z,13.60
2018-10-18T18:12:56.715Z,13.70
2018-10-18T18:15:25.250Z,13.70
2018-10-18T18:17:53.770Z,13.80
2018-10-18T18:20:23.220Z,13.80
2018-10-18T18:22:51.816Z,13.80
2018-10-18T18:25:20.913Z,13.80
2018-10-18T18:27:49.463Z,13.80
2018-10-18T18:30:17.950Z,13.70
2018-10-18T18:32:47.105Z,13.70
2018-10-18T18:35:15.659Z,13.70
2018-10-18T18:37:44.144Z,13.60
2018-10-18T18:40:13.322Z,13.50
2018-10-18T18:42:41.820Z,13.50
2018-10-18T18:45:16.695Z,13.40
2018-10-18T18:47:45.070Z,13.40
2018-10-18T18:50:13.590Z,13.30
2018-10-18T18:52:42.058Z,13.20
2018-10-18T18:55:10.787Z,13.20
2018-10-18T18:57:39.451Z,13.30
2018-10-18T19:00:09.252Z,13.20
2018-10-18T19:02:37.776Z,13.20
2018-10-18T19:05:07.130Z,13.20
2018-10-18T19:07:35.610Z,13.20
2018-10-18T19:10:04.436Z,13.20
2018-10-18T19:12:32.941Z,13.30
2018-10-18T19:15:01.487Z,13.20
2018-10-18T19:17:29.962Z,13.20
2018-10-18T19:19:58.539Z,13.20
2018-10-18T19:22:27.141Z,13.20
2018-10-18T19:24:55.818Z,13.20
2018-10-18T19:27:24.326Z,13.30
2018-10-18T19:29:52.819Z,13.30
2018-10-18T19:32:21.308Z,13.30
2018-10-18T19:34:49.771Z,13.30
2018-10-18T19:37:18.250Z,13.40
2018-10-18T19:39:46.748Z,13.30
2018-10-18T19:42:15.223Z,13.40
2018-10-18T19:44:43.694Z,13.40
2018-10-18T19:47:12.191Z,13.40
2018-10-18T19:49:40.662Z,13.40
2018-10-18T19:52:09.174Z,13.40
2018-10-18T19:54:37.627Z,13.40
2018-10-18T19:57:06.120Z,13.40
2018-10-18T19:59:34.599Z,13.50
2018-10-18T20:02:03.111Z,13.50
2018-10-18T20:04:31.590Z,13.50
2018-10-18T20:07:00.044Z,13.60
2018-10-18T20:09:28.546Z,13.60
2018-10-18T20:11:57.030Z,13.60
2018-10-18T20:14:25.469Z,13.60
2018-10-18T20:16:53.947Z,13.60
2018-10-18T20:19:22.396Z,13.60
2018-10-18T20:21:50.884Z,13.60
2018-10-18T20:24:19.361Z,13.50
2018-10-18T20:26:47.892Z,13.50
2018-10-18T20:29:16.323Z,13.50
2018-10-18T20:31:44.779Z,13.50
2018-10-18T20:34:13.254Z,13.50
2018-10-18T20:36:41.723Z,13.50
2018-10-18T20:39:11.031Z,13.50
2018-10-18T20:41:39.463Z,13.50
2018-10-18T20:44:07.973Z,13.50
2018-10-18T20:46:36.508Z,13.50
2018-10-18T20:49:05.047Z,13.50
2018-10-18T20:51:33.538Z,13.50
2018-10-18T20:54:02.062Z,13.50
2018-10-18T20:56:30.596Z,13.50
2018-10-18T20:58:59.083Z,13.50
2018-10-18T21:01:27.547Z,13.50
2018-10-18T21:03:56.011Z,13.50
2018-10-18T21:06:24.553Z,13.50
2018-10-18T21:08:52.993Z,13.50
2018-10-18T21:11:21.479Z,13.50
2018-10-18T21:13:49.950Z,13.50
2018-10-18T21:16:18.426Z,13.50
2018-10-18T21:18:46.892Z,13.40
2018-10-18T21:21:15.371Z,13.40
2018-10-18T21:23:43.860Z,13.50
2018-10-18T21:26:12.335Z,13.50
2018-10-18T21:28:40.839Z,13.40
2018-10-18T21:31:09.300Z,13.50
2018-10-18T21:33:38.055Z,13.50
2018-10-18T21:36:06.522Z,13.40
2018-10-18T21:38:34.991Z,13.40
2018-10-18T21:41:03.527Z,13.40
2018-10-18T21:43:32.019Z,13.40
2018-10-18T21:46:00.611Z,13.30
2018-10-18T21:48:29.850Z,13.40
2018-10-18T21:50:58.675Z,13.40
2018-10-18T21:53:27.135Z,13.40
2018-10-18T21:55:55.935Z,13.50
2018-10-18T21:58:24.399Z,13.60
2018-10-18T22:00:52.877Z,13.90
2018-10-18T22:03:21.363Z,14.00
2018-10-18T22:05:49.826Z,14.10
2018-10-18T22:08:18.332Z,14.10
2018-10-18T22:10:46.803Z,14.00
2018-10-18T22:13:15.283Z,14.00
2018-10-18T22:15:43.746Z,13.90
2018-10-18T22:18:12.218Z,13.80
2018-10-18T22:20:40.709Z,13.70
2018-10-18T22:23:09.265Z,13.60
2018-10-18T22:25:37.686Z,13.50
2018-10-18T22:28:06.307Z,13.40
2018-10-18T22:30:34.775Z,13.40
2018-10-18T22:33:03.309Z,13.30
2018-10-18T22:35:31.908Z,13.20
2018-10-18T22:38:00.405Z,13.20
2018-10-18T22:40:28.871Z,13.20
2018-10-18T22:42:57.327Z,13.20
2018-10-18T22:45:25.815Z,13.10
2018-10-18T22:47:54.311Z,13.10
2018-10-18T22:50:22.782Z,13.10
2018-10-18T22:52:51.263Z,13.00
2018-10-18T22:55:19.739Z,13.00
2018-10-18T22:57:48.210Z,13.00
2018-10-18T23:00:16.689Z,13.00
2018-10-18T23:02:45.187Z,13.00
2018-10-18T23:05:13.685Z,12.90
2018-10-18T23:07:42.150Z,13.00
2018-10-18T23:10:10.671Z,12.90
2018-10-18T23:12:39.172Z,12.90
2018-10-18T23:15:09.163Z,12.80
2018-10-18T23:17:38.033Z,12.80
2018-10-18T23:20:07.320Z,12.70
2018-10-18T23:22:35.795Z,12.60
2018-10-18T23:25:04.316Z,12.60
2018-10-18T23:27:32.886Z,12.50
2018-10-18T23:30:01.343Z,12.40
2018-10-18T23:32:29.865Z,12.40
2018-10-18T23:34:58.383Z,12.30
2018-10-18T23:37:26.870Z,12.20
2018-10-18T23:39:55.338Z,12.10
2018-10-18T23:42:23.827Z,12.00
2018-10-18T23:44:52.307Z,12.00
2018-10-18T23:47:20.799Z,12.00
2018-10-18T23:49:49.372Z,11.90
2018-10-18T23:52:17.835Z,11.90
2018-10-18T23:54:46.279Z,11.90
2018-10-18T23:57:14.881Z,11.90
2018-10-18T23:59:43.226Z,12.00
